Time;durP1;ratioP1;P1;durP2;ratioP2;P2;SDS_P1;SDS_P2;PMS_P1;PMS_P2;Temp;Humidity;BMP_temperature;BMP_pressure;BME280_temperature;BME280_humidity;BME280_pressure;Samples;Min_cycle;Max_cycle;Signal;HPM_P1;HPM_P2
2021/08/21 00:00:01;;;;;;;6.20;5.18;;;18.50;6.20;;;;;;5065105;28;20044;-73
2021/08/21 00:02:59;;;;;;;7.57;5.40;;;18.50;6.10;;;;;;5052673;28;20642;-72
2021/08/21 00:05:48;;;;;;;10.32;5.72;;;18.50;6.90;;;;;;5070980;28;20056;-73
2021/08/21 00:08:36;;;;;;;9.93;5.80;;;18.40;8.60;;;;;;5061753;28;20527;-73
2021/08/21 00:11:25;;;;;;;7.55;5.60;;;18.30;9.80;;;;;;5057777;28;20043;-72
2021/08/21 00:14:14;;;;;;;8.43;5.78;;;18.30;9.90;;;;;;5063978;28;20055;-72
2021/08/21 00:17:03;;;;;;;7.43;5.38;;;18.20;10.70;;;;;;5065744;28;20109;-73
2021/08/21 00:19:52;;;;;;;7.13;5.82;;;18.10;11.50;;;;;;5061072;28;20124;-72
2021/08/21 00:22:40;;;;;;;8.48;5.50;;;18.10;12.10;;;;;;5060549;28;20052;-71
2021/08/21 00:25:30;;;;;;;8.02;5.80;;;18.00;13.00;;;;;;5062595;28;20423;-70
2021/08/21 00:28:29;;;;;;;6.70;5.90;;;17.80;13.10;;;;;;5065172;28;20487;-72
2021/08/21 00:31:17;;;;;;;7.15;6.15;;;17.70;14.90;;;;;;5057849;28;20063;-73
2021/08/21 00:34:06;;;;;;;10.23;6.22;;;17.70;15.40;;;;;;5059085;28;20074;-73
2021/08/21 00:36:54;;;;;;;7.63;5.80;;;17.60;15.70;;;;;;5064839;28;20051;-72
2021/08/21 00:39:43;;;;;;;9.73;5.95;;;17.60;17.00;;;;;;5066200;28;20047;-72
2021/08/21 00:42:31;;;;;;;9.23;6.40;;;17.40;17.10;;;;;;5080910;28;20052;-72
2021/08/21 00:45:22;;;;;;;6.90;5.72;;;17.40;16.80;;;;;;5069025;28;20162;-72
2021/08/21 00:48:10;;;;;;;7.47;5.90;;;17.50;16.60;;;;;;5089358;28;20048;-72
2021/08/21 00:51:02;;;;;;;8.27;5.20;;;17.50;16.10;;;;;;5067987;28;20527;-72
2021/08/21 00:53:50;;;;;;;5.88;5.25;;;17.50;14.10;;;;;;5083169;28;20414;-73
2021/08/21 00:56:38;;;;;;;7.50;5.43;;;17.50;14.00;;;;;;5085394;28;20040;-73
2021/08/21 00:59:30;;;;;;;7.60;5.05;;;17.50;13.80;;;;;;5078758;28;20044;-73
2021/08/21 01:02:21;;;;;;;6.70;5.75;;;17.60;12.30;;;;;;5082596;28;20044;-73
2021/08/21 01:05:14;;;;;;;5.70;5.03;;;17.60;12.40;;;;;;5085060;28;20509;-73
2021/08/21 01:08:02;;;;;;;5.82;4.90;;;17.50;12.10;;;;;;5076130;28;20097;-72
2021/08/21 01:10:56;;;;;;;6.32;4.70;;;17.50;12.70;;;;;;5071759;28;20044;-73
2021/08/21 01:13:45;;;;;;;5.72;5.00;;;17.40;12.90;;;;;;5079982;28;20058;-73
2021/08/21 01:16:34;;;;;;;5.93;4.82;;;17.40;12.90;;;;;;5082744;28;20122;-73
2021/08/21 01:19:25;;;;;;;5.63;4.88;;;17.30;13.80;;;;;;5065498;28;20127;-73
2021/08/21 01:22:15;;;;;;;6.45;5.35;;;17.30;14.40;;;;;;5092630;28;20048;-73
2021/08/21 01:25:08;;;;;;;6.63;5.53;;;17.20;14.30;;;;;;5074867;28;20136;-73
2021/08/21 01:27:59;;;;;;;5.45;4.57;;;17.30;14.10;;;;;;5065797;28;20040;-73
2021/08/21 01:31:08;;;;;;;6.05;4.95;;;17.30;14.10;;;;;;5047349;28;20048;-73
2021/08/21 01:34:02;;;;;;;6.18;4.95;;;17.20;14.20;;;;;;5066113;28;20047;-73
2021/08/21 01:36:52;;;;;;;6.70;5.07;;;17.20;14.30;;;;;;5070046;28;20053;-73
2021/08/21 01:40:01;;;;;;;7.40;5.15;;;17.20;13.60;;;;;;5038030;28;20147;-73
2021/08/21 01:42:58;;;;;;;9.05;5.65;;;17.20;14.80;;;;;;5060966;28;20048;-73
2021/08/21 01:45:48;;;;;;;6.75;5.78;;;17.00;16.70;;;;;;5057968;28;20120;-72
2021/08/21 01:48:39;;;;;;;7.22;5.93;;;17.00;17.70;;;;;;5060609;28;20373;-71
2021/08/21 01:51:27;;;;;;;8.05;6.47;;;16.90;18.10;;;;;;5064185;28;20051;-71
2021/08/21 01:54:17;;;;;;;8.57;5.85;;;16.90;18.90;;;;;;5066190;28;20040;-71
2021/08/21 01:57:06;;;;;;;8.60;5.80;;;17.00;18.50;;;;;;5070191;28;20495;-71
2021/08/21 02:00:15;;;;;;;6.63;5.40;;;17.00;18.10;;;;;;5078603;28;20043;-71
2021/08/21 02:03:09;;;;;;;12.48;6.22;;;16.90;18.20;;;;;;5086964;28;20521;-73
2021/08/21 02:06:03;;;;;;;7.13;6.03;;;16.90;18.60;;;;;;5072446;28;20048;-71
2021/08/21 02:08:53;;;;;;;8.45;5.85;;;16.80;18.70;;;;;;5066079;28;20518;-71
2021/08/21 02:11:41;;;;;;;6.55;5.72;;;16.80;19.70;;;;;;5068015;28;20179;-71
2021/08/21 02:14:30;;;;;;;7.60;5.50;;;16.80;19.70;;;;;;5070279;28;20055;-72
2021/08/21 02:17:20;;;;;;;8.40;5.60;;;16.90;20.60;;;;;;5084303;28;20380;-72
2021/08/21 02:20:23;;;;;;;15.52;8.55;;;16.70;21.80;;;;;;5085377;28;20064;-72
2021/08/21 02:23:12;;;;;;;11.00;6.95;;;16.80;21.20;;;;;;5055625;28;20078;-72
2021/08/21 02:26:01;;;;;;;14.20;7.80;;;16.90;21.10;;;;;;5061972;28;20067;-72
2021/08/21 02:28:53;;;;;;;12.35;7.32;;;16.90;20.60;;;;;;5065670;28;20068;-72
2021/08/21 02:31:42;;;;;;;11.30;7.20;;;16.80;20.70;;;;;;5085494;28;20071;-72
2021/08/21 02:34:32;;;;;;;12.27;7.40;;;16.80;20.70;;;;;;5053245;28;20048;-72
2021/08/21 02:37:20;;;;;;;10.95;6.90;;;16.80;20.30;;;;;;5074471;28;20053;-72
2021/08/21 02:40:10;;;;;;;8.95;7.15;;;16.90;20.30;;;;;;5090749;28;20056;-72
2021/08/21 02:42:58;;;;;;;12.10;7.40;;;16.90;19.80;;;;;;5069319;28;20056;-72
2021/08/21 02:45:47;;;;;;;8.65;6.72;;;16.90;19.70;;;;;;5083555;28;20165;-72
2021/08/21 02:48:35;;;;;;;11.30;7.45;;;17.10;19.50;;;;;;5083030;28;20032;-72
2021/08/21 02:51:25;;;;;;;8.73;7.10;;;17.00;19.20;;;;;;5085678;28;20036;-72
2021/08/21 02:54:13;;;;;;;11.60;7.32;;;17.00;18.90;;;;;;5084083;28;20044;-72
2021/08/21 02:57:05;;;;;;;8.57;6.63;;;17.00;18.70;;;;;;5067367;28;20046;-72
2021/08/21 02:59:53;;;;;;;8.35;6.78;;;17.00;19.80;;;;;;5066880;28;20036;-72
2021/08/21 03:02:44;;;;;;;12.45;7.47;;;16.90;19.80;;;;;;5074753;28;20043;-72
2021/08/21 03:05:34;;;;;;;10.00;7.28;;;16.90;19.70;;;;;;5077560;28;20118;-72
2021/08/21 03:08:25;;;;;;;11.77;6.70;;;16.90;19.90;;;;;;5083694;28;20054;-72
2021/08/21 03:11:15;;;;;;;8.55;7.30;;;16.70;20.90;;;;;;5070083;28;20075;-72
2021/08/21 03:14:36;;;;;;;9.40;7.45;;;16.60;22.00;;;;;;5074912;28;20062;-72
2021/08/21 03:17:24;;;;;;;11.07;7.40;;;16.60;22.70;;;;;;5062323;28;20041;-72
2021/08/21 03:20:14;;;;;;;10.48;7.88;;;16.60;22.90;;;;;;5074501;28;20056;-73
2021/08/21 03:23:03;;;;;;;11.95;8.40;;;16.60;22.80;;;;;;5056504;28;20189;-72
2021/08/21 03:25:56;;;;;;;12.10;9.27;;;16.70;22.20;;;;;;5068202;28;20047;-72
2021/08/21 03:28:44;;;;;;;9.55;8.55;;;16.70;21.60;;;;;;5067022;28;20044;-72
2021/08/21 03:31:33;;;;;;;13.15;9.02;;;16.60;22.40;;;;;;5077487;28;20043;-73
2021/08/21 03:34:22;;;;;;;12.43;10.05;;;16.50;22.60;;;;;;5063798;28;20081;-72
2021/08/21 03:37:12;;;;;;;10.43;8.27;;;16.50;23.00;;;;;;5077415;28;20143;-72
2021/08/21 03:40:04;;;;;;;10.45;8.90;;;16.40;22.80;;;;;;5082873;28;20077;-72
2021/08/21 03:42:54;;;;;;;9.65;8.13;;;16.40;23.50;;;;;;5081152;28;20495;-72
2021/08/21 03:45:44;;;;;;;10.82;6.82;;;16.30;24.60;;;;;;5059618;28;20123;-72
2021/08/21 03:48:33;;;;;;;7.40;6.53;;;16.20;26.20;;;;;;5061584;28;20045;-72
2021/08/21 03:51:22;;;;;;;8.45;7.40;;;16.10;27.90;;;;;;5086451;28;20083;-72
2021/08/21 03:54:12;;;;;;;9.30;6.25;;;16.10;29.40;;;;;;5084759;28;20072;-72
2021/08/21 03:57:02;;;;;;;8.38;6.93;;;16.00;30.50;;;;;;5066620;28;20029;-72
2021/08/21 03:59:52;;;;;;;10.90;7.30;;;16.10;31.00;;;;;;5067629;28;20529;-72
2021/08/21 04:02:40;;;;;;;9.45;7.15;;;16.00;31.10;;;;;;5072082;28;20052;-73
2021/08/21 04:05:29;;;;;;;8.77;6.72;;;15.90;31.40;;;;;;5073893;28;20207;-73
2021/08/21 04:08:18;;;;;;;8.40;7.07;;;15.80;32.60;;;;;;5073063;28;20052;-72
2021/08/21 04:11:08;;;;;;;7.72;6.60;;;15.80;33.60;;;;;;5067754;28;20047;-73
2021/08/21 04:14:06;;;;;;;8.48;6.90;;;15.80;33.60;;;;;;5070038;28;20048;-73
2021/08/21 04:16:56;;;;;;;9.00;7.53;;;15.70;35.40;;;;;;5090228;28;20048;-73
2021/08/21 04:19:44;;;;;;;7.95;6.93;;;15.70;36.10;;;;;;5072125;28;20062;-73
2021/08/21 04:22:33;;;;;;;18.15;7.70;;;15.70;36.00;;;;;;5081666;28;20047;-73
2021/08/21 04:25:22;;;;;;;8.93;7.63;;;15.70;36.50;;;;;;5059019;28;20044;-72
2021/08/21 04:28:16;;;;;;;10.13;7.75;;;15.70;36.20;;;;;;5089230;28;20403;-73
2021/08/21 04:31:05;;;;;;;9.38;7.80;;;15.80;35.90;;;;;;5068172;28;20162;-73
2021/08/21 04:33:58;;;;;;;13.68;7.18;;;15.70;35.20;;;;;;5077884;28;20511;-73
2021/08/21 04:36:48;;;;;;;7.45;6.72;;;15.80;36.20;;;;;;5055053;28;20048;-73
2021/08/21 04:39:41;;;;;;;9.00;7.05;;;15.70;36.00;;;;;;5074188;28;20055;-73
2021/08/21 04:42:32;;;;;;;12.80;7.40;;;15.70;36.50;;;;;;5087539;28;20043;-72
2021/08/21 04:45:21;;;;;;;10.88;7.57;;;15.80;36.30;;;;;;5071473;28;20130;-73
2021/08/21 04:48:10;;;;;;;11.52;7.18;;;15.90;35.80;;;;;;5078422;28;20040;-73
2021/08/21 04:51:00;;;;;;;7.72;6.93;;;15.80;34.30;;;;;;5067263;28;20594;-73
2021/08/21 04:53:48;;;;;;;8.57;6.85;;;16.00;34.30;;;;;;5071840;28;20973;-73
2021/08/21 04:56:37;;;;;;;9.65;7.70;;;16.20;33.30;;;;;;5071833;28;20067;-72
2021/08/21 04:59:54;;;;;;;11.18;7.88;;;16.30;30.90;;;;;;5078628;28;20047;-73
2021/08/21 05:02:43;;;;;;;10.63;7.82;;;16.40;30.60;;;;;;5082072;28;20043;-72
2021/08/21 05:05:32;;;;;;;10.45;8.27;;;17.30;25.30;;;;;;5085740;28;20438;-73
2021/08/21 05:08:23;;;;;;;9.40;8.15;;;18.10;17.00;;;;;;5070459;28;20044;-73
2021/08/21 05:11:16;;;;;;;9.45;7.85;;;18.60;12.60;;;;;;5087750;28;20036;-73
2021/08/21 05:14:04;;;;;;;9.45;7.50;;;19.10;7.60;;;;;;5078091;28;20039;-73
2021/08/21 05:16:52;;;;;;;8.85;7.30;;;19.20;5.80;;;;;;5085571;28;21135;-73
2021/08/21 05:20:14;;;;;;;9.70;7.25;;;19.60;3.10;;;;;;5085050;28;20052;-73
2021/08/21 05:23:23;;;;;;;8.70;6.90;;;19.70;1.10;;;;;;5087303;28;20063;-73
2021/08/21 05:26:14;;;;;;;9.23;6.65;;;20.10;1.00;;;;;;5079679;28;20123;-73
2021/08/21 05:29:03;;;;;;;9.55;6.53;;;19.70;1.00;;;;;;5069764;28;20045;-73
2021/08/21 05:31:54;;;;;;;10.07;7.05;;;19.60;1.00;;;;;;5084019;28;20062;-73
2021/08/21 05:34:42;;;;;;;9.43;6.60;;;19.00;3.20;;;;;;5088153;28;20125;-73
2021/08/21 05:37:31;;;;;;;8.82;6.40;;;18.20;9.40;;;;;;5083752;28;20043;-73
2021/08/21 05:40:20;;;;;;;8.27;6.47;;;18.10;10.80;;;;;;5081826;28;20436;-73
2021/08/21 05:43:10;;;;;;;9.77;6.90;;;18.10;11.40;;;;;;5078943;28;20603;-72
2021/08/21 05:45:58;;;;;;;9.60;7.60;;;18.00;11.70;;;;;;5078414;28;20048;-73
2021/08/21 05:48:47;;;;;;;9.43;7.50;;;17.80;12.60;;;;;;5079761;28;20048;-73
2021/08/21 05:51:35;;;;;;;9.50;7.80;;;17.70;13.90;;;;;;5079327;28;20059;-73
2021/08/21 05:54:23;;;;;;;12.27;8.10;;;17.70;13.90;;;;;;5083299;28;20487;-72
2021/08/21 05:57:13;;;;;;;9.43;7.07;;;18.00;12.90;;;;;;5084998;28;21336;-73
2021/08/21 06:00:01;;;;;;;11.20;7.53;;;18.10;12.30;;;;;;5084301;28;20050;-72
2021/08/21 06:03:00;;;;;;;11.07;7.25;;;18.30;11.10;;;;;;5075757;28;20093;-72
2021/08/21 06:05:48;;;;;;;8.80;7.15;;;18.20;11.30;;;;;;5091229;28;20280;-73
2021/08/21 06:08:38;;;;;;;11.90;6.75;;;18.00;12.30;;;;;;5072216;28;20457;-73
2021/08/21 06:11:27;;;;;;;9.35;7.38;;;18.00;13.20;;;;;;5069078;28;20122;-73
2021/08/21 06:14:17;;;;;;;9.27;6.72;;;18.40;11.50;;;;;;5081485;28;20039;-73
2021/08/21 06:17:05;;;;;;;10.13;6.90;;;18.50;10.50;;;;;;5084780;28;20067;-73
2021/08/21 06:19:56;;;;;;;9.50;6.90;;;18.60;9.90;;;;;;5088019;28;20050;-73
2021/08/21 06:22:44;;;;;;;8.55;6.50;;;18.70;9.50;;;;;;5076192;28;20044;-73
2021/08/21 06:25:32;;;;;;;20.58;7.75;;;18.50;9.60;;;;;;5080054;28;20056;-73
2021/08/21 06:28:21;;;;;;;15.40;6.32;;;18.70;7.80;;;;;;5086560;28;21315;-72
2021/08/21 06:31:11;;;;;;;8.85;6.07;;;18.70;7.90;;;;;;5085821;28;20047;-73
2021/08/21 06:33:59;;;;;;;7.45;5.90;;;18.50;8.40;;;;;;5080291;28;20534;-73
2021/08/21 06:36:47;;;;;;;8.15;5.82;;;18.60;7.40;;;;;;5085785;28;20059;-72
2021/08/21 06:39:36;;;;;;;8.30;5.43;;;18.90;6.40;;;;;;5087327;28;20037;-73
2021/08/21 06:42:24;;;;;;;6.53;5.20;;;19.10;4.80;;;;;;5085582;28;20039;-72
2021/08/21 06:45:42;;;;;;;5.47;4.90;;;19.10;4.80;;;;;;5059885;28;20127;-73
2021/08/21 06:48:32;;;;;;;9.00;4.88;;;19.40;2.90;;;;;;5067151;28;20044;-73
2021/08/21 06:51:20;;;;;;;7.90;5.20;;;19.20;3.70;;;;;;5080234;28;20646;-73
2021/08/21 06:54:09;;;;;;;7.53;4.88;;;19.20;3.10;;;;;;5074157;28;20542;-73
2021/08/21 06:56:57;;;;;;;5.63;4.65;;;19.50;3.00;;;;;;5081027;28;20419;-74
2021/08/21 06:59:45;;;;;;;6.88;4.85;;;19.60;3.00;;;;;;5082734;28;20048;-73
2021/08/21 07:02:34;;;;;;;7.20;5.07;;;19.50;3.00;;;;;;5078862;28;20058;-73
2021/08/21 07:05:24;;;;;;;6.50;5.38;;;19.40;2.90;;;;;;5078225;28;20055;-72
2021/08/21 07:08:12;;;;;;;5.25;4.75;;;19.40;2.90;;;;;;5085019;28;20516;-73
2021/08/21 07:11:01;;;;;;;6.78;4.40;;;19.80;1.00;;;;;;5078891;28;20047;-73
2021/08/21 07:13:50;;;;;;;5.45;4.75;;;20.00;1.00;;;;;;5079937;28;20418;-74
2021/08/21 07:16:38;;;;;;;9.32;5.32;;;20.30;1.00;;;;;;5085080;28;20149;-73
2021/08/21 07:19:27;;;;;;;7.18;4.97;;;20.30;1.00;;;;;;5084666;28;20531;-73
2021/08/21 07:22:17;;;;;;;7.38;4.43;;;20.30;1.00;;;;;;5085539;28;20044;-73
2021/08/21 07:25:06;;;;;;;10.43;5.10;;;20.40;1.00;;;;;;5082911;28;20424;-72
2021/08/21 07:27:54;;;;;;;6.15;4.68;;;20.50;1.00;;;;;;5077599;28;20058;-73
2021/08/21 07:30:43;;;;;;;8.73;4.20;;;20.60;1.00;;;;;;5083988;28;20036;-73
2021/08/21 07:33:32;;;;;;;6.40;3.70;;;21.10;1.00;;;;;;5087698;28;20515;-73
2021/08/21 07:36:20;;;;;;;6.55;3.70;;;21.20;1.00;;;;;;5077549;28;20043;-73
2021/08/21 07:39:10;;;;;;;5.15;4.10;;;21.30;1.00;;;;;;5082241;28;20462;-73
2021/08/21 07:41:58;;;;;;;4.57;3.58;;;21.30;1.00;;;;;;5081165;28;20049;-73
2021/08/21 07:44:48;;;;;;;9.13;4.00;;;21.50;1.00;;;;;;5086347;28;20768;-73
2021/08/21 07:47:36;;;;;;;5.93;3.80;;;21.50;1.00;;;;;;5084683;28;20613;-73
2021/08/21 07:50:25;;;;;;;5.50;3.38;;;21.40;1.00;;;;;;5083478;28;20444;-73
2021/08/21 07:53:13;;;;;;;4.13;3.30;;;21.70;1.00;;;;;;5061573;28;20047;-72
2021/08/21 07:56:06;;;;;;;5.95;3.60;;;21.80;1.00;;;;;;5083981;28;20044;-73
2021/08/21 07:58:54;;;;;;;5.80;3.95;;;21.80;1.00;;;;;;5085217;28;20052;-73
2021/08/21 08:01:42;;;;;;;6.60;3.95;;;21.90;1.00;;;;;;5086680;28;20047;-73
2021/08/21 08:04:31;;;;;;;4.28;3.58;;;21.50;1.00;;;;;;5081556;28;20047;-73
2021/08/21 08:07:19;;;;;;;5.55;4.25;;;21.60;1.00;;;;;;5080370;28;20049;-73
2021/08/21 08:10:56;;;;;;;6.90;4.38;;;21.90;1.00;;;;;;5031646;28;20416;-74
2021/08/21 08:13:46;;;;;;;5.32;4.15;;;22.10;1.00;;;;;;5027406;28;20187;-76
2021/08/21 08:16:34;;;;;;;7.50;3.97;;;21.90;1.00;;;;;;5021304;28;20448;-76
2021/08/21 08:19:23;;;;;;;6.68;3.80;;;22.20;1.00;;;;;;5025438;28;20136;-76
2021/08/21 08:22:11;;;;;;;7.43;3.95;;;22.30;1.00;;;;;;5009244;28;20460;-76
2021/08/21 08:25:00;;;;;;;6.40;3.88;;;22.50;1.00;;;;;;5026629;28;20050;-76
2021/08/21 08:27:48;;;;;;;4.13;3.42;;;22.40;1.00;;;;;;5022088;28;20049;-77
2021/08/21 08:30:39;;;;;;;4.68;4.10;;;22.40;1.00;;;;;;5022252;28;20080;-77
2021/08/21 08:33:27;;;;;;;4.53;3.85;;;22.50;1.00;;;;;;5020357;28;20049;-77
2021/08/21 08:36:16;;;;;;;5.38;3.80;;;22.50;1.00;;;;;;5025829;28;20757;-77
2021/08/21 08:39:04;;;;;;;3.55;3.22;;;22.70;1.00;;;;;;5019761;28;20406;-76
2021/08/21 08:41:53;;;;;;;4.32;3.35;;;23.10;1.00;;;;;;5063484;28;20514;-76
2021/08/21 08:44:46;;;;;;;5.88;4.90;;;23.00;1.00;;;;;;5084883;28;20498;-77
2021/08/21 08:47:37;;;;;;;8.18;5.43;;;22.90;1.00;;;;;;5083571;27;20052;-76
2021/08/21 08:50:26;;;;;;;7.70;5.32;;;23.30;1.00;;;;;;5089301;28;20043;-76
2021/08/21 08:53:14;;;;;;;5.47;4.68;;;23.10;1.00;;;;;;5078108;28;20096;-76
2021/08/21 08:56:03;;;;;;;7.75;5.25;;;23.10;1.00;;;;;;5080407;28;20123;-76
2021/08/21 08:58:51;;;;;;;6.07;5.00;;;23.40;1.00;;;;;;5085747;28;20051;-77
2021/08/21 09:01:40;;;;;;;6.07;4.97;;;23.30;1.00;;;;;;5078929;28;20160;-77
2021/08/21 09:04:30;;;;;;;7.00;5.65;;;23.80;1.00;;;;;;5075553;28;20582;-77
2021/08/21 09:07:19;;;;;;;6.28;5.57;;;23.90;1.00;;;;;;5078748;28;20094;-77
2021/08/21 09:10:15;;;;;;;8.68;5.93;;;24.10;1.00;;;;;;5081000;28;20098;-77
2021/08/21 09:13:06;;;;;;;5.78;5.15;;;23.80;1.00;;;;;;5081284;28;20040;-76
2021/08/21 09:15:58;;;;;;;6.38;5.60;;;24.10;1.00;;;;;;5080489;28;20550;-76
2021/08/21 09:19:03;;;;;;;8.00;6.80;;;24.00;1.00;;;;;;5083874;28;20044;-76
2021/08/21 09:22:07;;;;;;;7.07;4.75;;;23.80;1.00;;;;;;5129648;27;20124;-74
2021/08/21 09:24:55;;;;;;;4.78;4.20;;;24.00;1.00;;;;;;5120197;28;20442;-73
2021/08/21 09:27:45;;;;;;;5.93;5.32;;;24.20;1.00;;;;;;5116792;28;20043;-73
2021/08/21 09:30:34;;;;;;;6.95;5.75;;;24.30;1.00;;;;;;5094276;28;20043;-73
2021/08/21 09:33:22;;;;;;;6.40;5.50;;;24.30;1.00;;;;;;5101459;28;20051;-74
2021/08/21 09:36:14;;;;;;;6.75;4.93;;;24.60;1.00;;;;;;5103746;28;20206;-74
2021/08/21 09:39:05;;;;;;;6.20;5.00;;;24.90;1.00;;;;;;5091921;28;20044;-73
2021/08/21 09:41:55;;;;;;;6.38;5.00;;;24.80;1.00;;;;;;5096321;28;20033;-74
2021/08/21 09:44:45;;;;;;;7.25;6.20;;;24.80;1.00;;;;;;5092729;28;20479;-74
2021/08/21 09:47:40;;;;;;;6.55;4.78;;;24.80;1.00;;;;;;5093385;28;20043;-74
2021/08/21 09:50:33;;;;;;;5.00;4.00;;;25.10;1.00;;;;;;5099448;28;20040;-74
2021/08/21 09:53:36;;;;;;;6.65;4.75;;;25.40;1.00;;;;;;5095393;27;20047;-74
2021/08/21 09:56:31;;;;;;;9.80;5.20;;;25.30;1.00;;;;;;5089913;28;20039;-74
2021/08/21 09:59:33;;;;;;;4.95;4.25;;;24.80;1.00;;;;;;5101722;28;20046;-74
2021/08/21 10:02:22;;;;;;;5.03;4.30;;;25.30;1.00;;;;;;5098805;28;20052;-74
2021/08/21 10:05:11;;;;;;;6.43;4.30;;;25.40;1.00;;;;;;5098582;28;20035;-74
2021/08/21 10:08:03;;;;;;;6.72;5.30;;;25.70;1.00;;;;;;5096407;28;20036;-74
2021/08/21 10:10:53;;;;;;;7.68;4.70;;;25.00;1.00;;;;;;5096962;28;20059;-73
2021/08/21 10:13:44;;;;;;;5.50;4.88;;;25.60;1.00;;;;;;5099537;28;20048;-74
2021/08/21 10:16:33;;;;;;;6.32;5.53;;;25.70;1.00;;;;;;5098117;28;20427;-74
2021/08/21 10:19:24;;;;;;;6.90;5.30;;;25.40;1.00;;;;;;5097086;28;20079;-74
2021/08/21 10:22:13;;;;;;;5.65;4.95;;;25.30;1.00;;;;;;5100948;28;20047;-74
2021/08/21 10:25:05;;;;;;;8.48;6.00;;;25.50;1.00;;;;;;5099836;28;20422;-74
2021/08/21 10:27:58;;;;;;;6.65;5.32;;;25.30;1.00;;;;;;5098733;28;20415;-74
2021/08/21 10:30:49;;;;;;;6.15;5.55;;;25.30;1.00;;;;;;5097712;28;20048;-73
2021/08/21 10:33:53;;;;;;;7.05;5.53;;;25.80;1.00;;;;;;5084424;28;20044;-74
2021/08/21 10:36:45;;;;;;;6.88;5.57;;;25.70;1.00;;;;;;5085801;28;20164;-74
2021/08/21 10:39:36;;;;;;;6.05;5.40;;;26.00;1.00;;;;;;5085744;28;20052;-74
2021/08/21 10:42:28;;;;;;;6.35;5.68;;;25.70;1.00;;;;;;5079198;28;20066;-74
2021/08/21 10:45:43;;;;;;;8.82;5.43;;;24.90;1.00;;;;;;5082044;28;20078;-74
2021/08/21 10:48:55;;;;;;;10.02;6.30;;;26.00;1.00;;;;;;5084722;28;20036;-74
2021/08/21 10:51:45;;;;;;;9.02;7.32;;;26.10;1.00;;;;;;5105822;28;20052;-74
2021/08/21 10:54:45;;;;;;;8.35;5.72;;;26.10;1.00;;;;;;5084553;28;20090;-74
2021/08/21 10:57:33;;;;;;;8.13;6.03;;;25.90;1.00;;;;;;5078855;28;20127;-73
2021/08/21 11:00:44;;;;;;;6.55;5.35;;;26.30;1.00;;;;;;5084537;28;20075;-74
2021/08/21 11:03:46;;;;;;;6.47;4.78;;;26.20;1.00;;;;;;5085058;28;20090;-75
2021/08/21 11:06:38;;;;;;;6.18;4.68;;;26.40;1.00;;;;;;5086725;28;20178;-74
2021/08/21 11:09:27;;;;;;;5.93;5.00;;;26.60;1.00;;;;;;5079749;28;20051;-74
2021/08/21 11:12:37;;;;;;;9.68;5.80;;;26.80;1.00;;;;;;5079739;28;20048;-73
2021/08/21 11:15:30;;;;;;;7.82;6.32;;;27.00;1.00;;;;;;5081065;28;20050;-75
2021/08/21 11:18:21;;;;;;;7.88;6.50;;;27.00;1.00;;;;;;5086531;28;20564;-73
2021/08/21 11:21:33;;;;;;;6.35;5.65;;;26.40;1.00;;;;;;5082111;28;20127;-74
2021/08/21 11:24:28;;;;;;;10.27;6.30;;;26.90;1.00;;;;;;5082504;28;20527;-73
2021/08/21 11:28:01;;;;;;;6.95;5.82;;;27.00;1.00;;;;;;5078480;28;20055;-74
2021/08/21 11:31:08;;;;;;;8.57;6.93;;;26.40;1.00;;;;;;5004280;28;20042;-76
2021/08/21 11:33:58;;;;;;;9.60;7.18;;;26.80;1.00;;;;;;5023460;28;20077;-75
2021/08/21 11:36:47;;;;;;;9.10;6.20;;;26.80;1.00;;;;;;5103793;28;20123;-74
2021/08/21 11:39:37;;;;;;;8.63;6.80;;;27.10;1.00;;;;;;5105164;27;20051;-74
2021/08/21 11:42:44;;;;;;;10.90;5.80;;;27.10;1.00;;;;;;5099408;28;20514;-74
2021/08/21 11:45:33;;;;;;;7.82;5.40;;;27.10;1.00;;;;;;5103988;28;20047;-73
2021/08/21 11:48:27;;;;;;;7.57;4.75;;;27.00;1.00;;;;;;5105691;28;20440;-73
2021/08/21 11:51:22;;;;;;;6.72;4.85;;;27.30;1.00;;;;;;5106385;27;20080;-74
2021/08/21 11:54:12;;;;;;;11.77;5.85;;;27.40;1.00;;;;;;5101598;28;20172;-74
2021/08/21 11:57:03;;;;;;;6.65;5.13;;;27.70;1.00;;;;;;5105370;27;20402;-74
2021/08/21 11:59:51;;;;;;;6.35;5.70;;;27.60;1.00;;;;;;5104372;28;20459;-75
2021/08/21 12:02:45;;;;;;;5.28;4.63;;;27.80;1.00;;;;;;5101294;27;20036;-75
2021/08/21 12:05:36;;;;;;;6.45;5.07;;;27.70;1.00;;;;;;5100250;28;20122;-75
2021/08/21 12:08:27;;;;;;;5.35;4.50;;;27.30;1.00;;;;;;5102850;28;20495;-74
2021/08/21 12:11:16;;;;;;;5.75;5.07;;;27.20;1.00;;;;;;5104858;28;20497;-74
2021/08/21 12:14:07;;;;;;;7.10;5.30;;;27.20;1.00;;;;;;5084415;28;20837;-73
2021/08/21 12:16:57;;;;;;;5.28;4.78;;;26.80;1.00;;;;;;5100494;27;20046;-74
2021/08/21 12:19:45;;;;;;;5.80;4.88;;;28.00;1.00;;;;;;5104935;28;20048;-75
2021/08/21 12:22:35;;;;;;;5.93;4.43;;;28.20;1.00;;;;;;5102856;28;20111;-75
2021/08/21 12:25:23;;;;;;;5.60;4.28;;;28.10;1.00;;;;;;5104195;27;20071;-74
2021/08/21 12:28:12;;;;;;;5.95;4.57;;;27.90;1.00;;;;;;5101435;28;20076;-74
2021/08/21 12:31:04;;;;;;;5.32;4.60;;;27.80;1.00;;;;;;5082312;28;20135;-74
2021/08/21 12:33:56;;;;;;;4.63;4.20;;;27.60;1.00;;;;;;5104351;28;20078;-74
2021/08/21 12:36:47;;;;;;;5.20;4.20;;;27.90;1.00;;;;;;5098394;28;20724;-74
2021/08/21 12:39:40;;;;;;;5.60;4.78;;;28.20;1.00;;;;;;5103232;28;20168;-74
2021/08/21 12:42:29;;;;;;;;;;;28.30;1.00;;;;;;5088043;27;20043;-74
2021/08/21 12:45:20;;;;;;;7.78;4.57;;;28.10;1.00;;;;;;5104856;28;20010;-74
2021/08/21 12:48:10;;;;;;;7.80;5.03;;;28.50;1.00;;;;;;5103753;28;20533;-74
2021/08/21 12:51:40;;;;;;;5.13;4.55;;;28.80;1.00;;;;;;5098374;28;20097;-75
2021/08/21 12:54:30;;;;;;;5.97;4.45;;;28.60;1.00;;;;;;5099315;28;20057;-75
2021/08/21 12:57:21;;;;;;;6.47;5.28;;;28.70;1.00;;;;;;5100809;28;20051;-75
2021/08/21 13:00:12;;;;;;;4.90;4.20;;;28.60;1.00;;;;;;5103654;28;20311;-74
2021/08/21 13:03:14;;;;;;;5.95;4.43;;;28.80;1.00;;;;;;5100933;28;20051;-74
2021/08/21 13:06:03;;;;;;;6.32;4.72;;;28.70;1.00;;;;;;5099722;28;20122;-74
2021/08/21 13:08:51;;;;;;;5.93;4.05;;;28.80;1.00;;;;;;5088870;28;20062;-75
2021/08/21 13:11:40;;;;;;;7.63;4.53;;;28.90;1.00;;;;;;5103701;28;20035;-75
2021/08/21 13:14:29;;;;;;;5.13;4.32;;;28.70;1.00;;;;;;5101877;28;20040;-75
2021/08/21 13:17:17;;;;;;;6.55;4.45;;;28.80;1.00;;;;;;5100046;28;20047;-74
2021/08/21 13:20:08;;;;;;;5.15;4.13;;;28.20;1.00;;;;;;5102418;28;20053;-75
2021/08/21 13:22:57;;;;;;;4.80;4.38;;;28.20;1.00;;;;;;5100935;28;20050;-74
2021/08/21 13:25:45;;;;;;;6.15;4.85;;;28.70;1.00;;;;;;5102434;28;20128;-77
2021/08/21 13:28:34;;;;;;;7.20;4.20;;;28.90;1.00;;;;;;5103244;28;20118;-76
2021/08/21 13:31:22;;;;;;;4.97;3.88;;;28.30;1.00;;;;;;5100752;28;20047;-75
2021/08/21 13:34:11;;;;;;;5.22;4.40;;;28.20;1.00;;;;;;5102679;28;20081;-70
2021/08/21 13:37:00;;;;;;;5.18;4.30;;;28.70;1.00;;;;;;5102663;28;20449;-71
2021/08/21 13:39:49;;;;;;;4.55;4.03;;;28.90;1.00;;;;;;5084117;28;20435;-70
2021/08/21 13:42:38;;;;;;;6.13;3.80;;;28.60;1.00;;;;;;5078088;28;20033;-71
2021/08/21 13:45:26;;;;;;;4.63;3.92;;;28.40;1.00;;;;;;5081771;28;20040;-71
2021/08/21 13:48:15;;;;;;;4.20;3.80;;;28.60;1.00;;;;;;5080553;28;20614;-71
2021/08/21 13:51:03;;;;;;;5.05;3.88;;;29.20;1.00;;;;;;5081281;28;20506;-71
2021/08/21 13:53:53;;;;;;;4.28;3.88;;;29.10;1.00;;;;;;5080001;28;20556;-71
2021/08/21 13:56:42;;;;;;;5.22;3.78;;;28.40;1.00;;;;;;5082988;28;20048;-70
2021/08/21 13:59:31;;;;;;;4.60;4.18;;;28.30;1.00;;;;;;5086529;28;20147;-71
2021/08/21 14:02:20;;;;;;;6.30;4.32;;;29.00;1.00;;;;;;5084364;28;20485;-72
2021/08/21 14:05:10;;;;;;;5.35;3.78;;;29.20;1.00;;;;;;5079123;28;20054;-75
2021/08/21 14:07:59;;;;;;;7.57;4.40;;;28.70;1.00;;;;;;5081543;28;20097;-74
2021/08/21 14:10:49;;;;;;;4.97;4.47;;;28.40;1.00;;;;;;5084320;28;20084;-74
2021/08/21 14:13:37;;;;;;;6.82;4.38;;;28.90;1.00;;;;;;5084259;28;20442;-71
2021/08/21 14:16:25;;;;;;;5.82;5.03;;;28.90;1.00;;;;;;5086526;28;20497;-70
2021/08/21 14:19:14;;;;;;;7.07;4.47;;;29.10;1.00;;;;;;5108670;28;20046;-71
2021/08/21 14:22:02;;;;;;;5.03;4.15;;;28.70;1.00;;;;;;5085612;28;20062;-71
2021/08/21 14:24:51;;;;;;;5.88;4.47;;;29.10;1.00;;;;;;5087228;28;20066;-72
2021/08/21 14:27:41;;;;;;;9.77;4.82;;;29.20;1.00;;;;;;5105736;28;20074;-72
2021/08/21 14:30:30;;;;;;;4.78;4.18;;;29.20;1.00;;;;;;5107225;28;20043;-71
2021/08/21 14:33:19;;;;;;;5.93;4.30;;;29.20;1.00;;;;;;5107011;27;20035;-76
2021/08/21 14:36:08;;;;;;;4.45;4.03;;;29.10;1.00;;;;;;5103590;28;20040;-76
2021/08/21 14:38:58;;;;;;;4.78;4.38;;;28.60;1.00;;;;;;5105939;28;20046;-74
2021/08/21 14:41:48;;;;;;;6.68;4.22;;;28.60;1.00;;;;;;5102515;28;20047;-75
2021/08/21 14:44:39;;;;;;;4.78;4.30;;;28.60;1.00;;;;;;5106830;28;20036;-75
2021/08/21 14:47:27;;;;;;;6.25;4.85;;;28.30;1.00;;;;;;5108047;27;20524;-75
2021/08/21 14:50:16;;;;;;;9.43;4.63;;;28.30;1.00;;;;;;5104690;28;20058;-76
2021/08/21 14:53:05;;;;;;;5.47;4.25;;;28.50;1.00;;;;;;5080135;28;20044;-74
2021/08/21 14:55:53;;;;;;;5.20;4.47;;;28.70;1.00;;;;;;5106358;28;20039;-75
2021/08/21 14:58:42;;;;;;;8.20;4.32;;;28.70;1.00;;;;;;5106230;27;20049;-75